createdAt,value
2023-04-01T00:01:18.430Z,94.65
2023-04-01T00:03:45.438Z,94.61
2023-04-01T00:06:13.391Z,94.11
2023-04-01T00:08:39.705Z,94.71
2023-04-01T00:11:06.019Z,94.43
2023-04-01T00:13:32.376Z,94.68
2023-04-01T00:16:00.143Z,94.78
2023-04-01T00:18:26.875Z,94.96
2023-04-01T00:20:53.785Z,95.04
2023-04-01T00:23:20.245Z,94.34
2023-04-01T00:25:46.895Z,94.60
2023-04-01T00:28:13.558Z,94.61
2023-04-01T00:30:39.864Z,94.21
2023-04-01T00:33:06.246Z,94.31
2023-04-01T00:35:32.812Z,94.92
2023-04-01T00:37:59.836Z,94.48
2023-04-01T00:40:33.425Z,94.79
2023-04-01T00:43:00.663Z,94.55
2023-04-01T00:45:30.322Z,94.87
2023-04-01T00:47:59.958Z,94.42
2023-04-01T00:50:27.811Z,94.63
2023-04-01T00:52:54.540Z,94.38
2023-04-01T00:55:23.995Z,94.64
2023-04-01T00:57:54.456Z,95.00
2023-04-01T01:00:20.833Z,94.77
2023-04-01T01:02:48.783Z,94.09
2023-04-01T01:05:16.904Z,94.61
2023-04-01T01:07:50.297Z,94.29
2023-04-01T01:10:35.669Z,93.96
2023-04-01T01:13:59.370Z,94.98
2023-04-01T01:16:29.320Z,94.36
2023-04-01T01:19:17.252Z,95.01
2023-04-01T01:21:52.361Z,94.76
2023-04-01T01:24:30.232Z,94.34
2023-04-01T01:27:10.006Z,94.38
2023-04-01T01:29:42.916Z,94.95
2023-04-01T01:32:17.692Z,94.42
2023-04-01T01:35:22.131Z,95.25
2023-04-01T01:37:52.871Z,94.24
2023-04-01T01:40:20.523Z,94.68
2023-04-01T01:42:52.741Z,94.83
2023-04-01T01:45:22.413Z,94.28
2023-04-01T01:47:50.808Z,94.64
2023-04-01T01:50:18.196Z,94.98
2023-04-01T01:52:44.498Z,95.01
2023-04-01T01:55:27.529Z,95.01
2023-04-01T01:57:55.343Z,94.89
2023-04-01T02:00:22.400Z,94.40
2023-04-01T02:02:50.430Z,94.33
2023-04-01T02:05:24.204Z,94.92
2023-04-01T02:08:02.126Z,94.66
2023-04-01T02:10:31.997Z,94.56
2023-04-01T02:13:03.451Z,95.65
2023-04-01T02:15:34.817Z,95.38
2023-04-01T02:18:02.165Z,95.53
2023-04-01T02:20:30.516Z,95.59
2023-04-01T02:22:59.010Z,95.13
2023-04-01T02:25:29.483Z,94.82
2023-04-01T02:27:58.974Z,95.44
2023-04-01T02:30:28.477Z,95.15
2023-04-01T02:32:57.700Z,94.90
2023-04-01T02:35:25.614Z,95.44
2023-04-01T02:37:54.179Z,95.22
2023-04-01T02:40:20.912Z,94.66
2023-04-01T02:42:47.304Z,95.03
2023-04-01T02:45:14.805Z,94.77
2023-04-01T02:47:41.439Z,94.88
2023-04-01T02:50:08.935Z,94.65
2023-04-01T02:52:35.379Z,94.77
2023-04-01T02:55:01.799Z,95.13
2023-04-01T02:57:28.189Z,94.92
2023-04-01T02:59:54.591Z,95.34
2023-04-01T03:02:20.965Z,95.13
2023-04-01T03:04:47.383Z,95.27
2023-04-01T03:07:14.037Z,95.40
2023-04-01T03:09:40.409Z,95.26
2023-04-01T03:12:07.360Z,95.10
2023-04-01T03:14:33.665Z,94.91
2023-04-01T03:17:00.064Z,95.79
2023-04-01T03:19:26.504Z,95.65
2023-04-01T03:21:52.909Z,95.21
2023-04-01T03:24:19.261Z,95.42
2023-04-01T03:26:45.535Z,95.59
2023-04-01T03:29:11.863Z,95.86
2023-04-01T03:31:38.177Z,95.70
2023-04-01T03:34:04.481Z,95.60
2023-04-01T03:36:30.825Z,95.25
2023-04-01T03:38:57.143Z,95.48
2023-04-01T03:41:23.503Z,95.76
2023-04-01T03:43:49.803Z,96.03
2023-04-01T03:46:20.334Z,95.24
2023-04-01T03:48:47.552Z,95.80
2023-04-01T03:51:14.164Z,95.18
2023-04-01T03:53:40.497Z,95.33
2023-04-01T03:56:08.379Z,95.55
2023-04-01T03:58:35.815Z,95.91
2023-04-01T04:01:02.191Z,95.84
2023-04-01T04:03:28.623Z,96.02
2023-04-01T04:05:55.007Z,95.53
2023-04-01T04:08:21.354Z,95.85
2023-04-01T04:10:47.660Z,95.96
2023-04-01T04:13:13.986Z,95.33
2023-04-01T04:15:40.347Z,95.36
2023-04-01T04:18:06.787Z,95.44
2023-04-01T04:20:33.092Z,95.35
2023-04-01T04:23:01.405Z,96.16
2023-04-01T04:25:27.730Z,95.40
2023-04-01T04:27:54.023Z,95.38
2023-04-01T04:30:20.392Z,95.51
2023-04-01T04:32:46.705Z,96.22
2023-04-01T04:35:13.141Z,96.13
2023-04-01T04:37:39.451Z,95.65
2023-04-01T04:40:06.438Z,95.78
2023-04-01T04:42:32.780Z,95.57
2023-04-01T04:44:59.133Z,95.24
2023-04-01T04:47:25.417Z,96.14
2023-04-01T04:49:51.785Z,95.45
2023-04-01T04:52:18.066Z,95.45
2023-04-01T04:54:44.408Z,96.10
2023-04-01T04:57:10.720Z,95.98
2023-04-01T04:59:37.045Z,96.13
2023-04-01T05:02:03.382Z,95.55
2023-04-01T05:04:29.692Z,95.67
2023-04-01T05:06:56.011Z,95.90
2023-04-01T05:09:22.352Z,95.56
2023-04-01T05:11:48.765Z,95.28
2023-04-01T05:14:16.415Z,95.12
2023-04-01T05:16:42.830Z,96.35
2023-04-01T05:19:09.222Z,95.20
2023-04-01T05:21:35.625Z,95.53
2023-04-01T05:24:01.931Z,95.18
2023-04-01T05:26:28.236Z,95.61
2023-04-01T05:28:54.571Z,95.88
2023-04-01T05:31:21.107Z,95.16
2023-04-01T05:33:47.541Z,95.67
2023-04-01T05:36:16.754Z,94.99
2023-04-01T05:38:43.429Z,95.07
2023-04-01T05:41:09.844Z,95.75
2023-04-01T05:43:40.258Z,95.26
2023-04-01T05:46:06.879Z,95.73
2023-04-01T05:48:34.888Z,95.39
2023-04-01T05:51:01.820Z,95.55
2023-04-01T05:53:28.124Z,95.35
2023-04-01T05:55:54.429Z,95.39
2023-04-01T05:58:20.743Z,95.54
2023-04-01T06:00:47.904Z,95.04
2023-04-01T06:03:14.546Z,95.29
2023-04-01T06:05:44.132Z,95.67
2023-04-01T06:08:20.576Z,95.88
2023-04-01T06:10:50.120Z,94.91
2023-04-01T06:13:25.607Z,95.55
2023-04-01T06:16:06.467Z,95.39
2023-04-01T06:18:51.118Z,95.76
2023-04-01T06:21:38.040Z,95.80
2023-04-01T06:24:43.917Z,95.42
2023-04-01T06:27:28.735Z,94.98
2023-04-01T06:30:25.445Z,95.44
2023-04-01T06:32:54.866Z,95.20
2023-04-01T06:35:35.966Z,95.59
2023-04-01T06:38:27.323Z,96.25
2023-04-01T06:41:26.157Z,95.75
2023-04-01T06:44:01.276Z,95.97
2023-04-01T06:46:48.018Z,95.30
2023-04-01T06:49:49.244Z,95.48
2023-04-01T06:52:24.436Z,95.91
2023-04-01T06:54:59.539Z,95.52
2023-04-01T06:57:44.169Z,96.36
2023-04-01T07:00:33.014Z,95.91
2023-04-01T07:03:18.796Z,95.82
2023-04-01T07:05:45.148Z,95.56
2023-04-01T07:08:16.936Z,95.73
2023-04-01T07:10:59.242Z,96.59
2023-04-01T07:13:30.104Z,96.00
2023-04-01T07:16:36.944Z,95.87
2023-04-01T07:19:45.254Z,95.68
2023-04-01T07:22:26.779Z,95.93
2023-04-01T07:24:54.944Z,95.74
2023-04-01T07:27:21.328Z,96.43
2023-04-01T07:29:48.012Z,94.87
2023-04-01T07:32:20.434Z,96.00
2023-04-01T07:34:55.257Z,95.45
2023-04-01T07:37:21.510Z,95.24
2023-04-01T07:40:12.211Z,94.66
2023-04-01T07:43:43.367Z,95.55
2023-04-01T07:46:24.816Z,95.39
2023-04-01T07:49:04.776Z,95.45
2023-04-01T07:51:37.027Z,94.12
2023-04-01T07:54:18.546Z,94.97
2023-04-01T07:56:55.562Z,94.79
2023-04-01T07:59:40.043Z,95.17
2023-04-01T08:02:48.039Z,95.12
2023-04-01T08:05:32.891Z,95.31
2023-04-01T08:08:20.945Z,95.61
2023-04-01T08:11:14.683Z,94.59
2023-04-01T08:13:52.673Z,94.79
2023-04-01T08:16:29.721Z,94.01
2023-04-01T08:18:55.987Z,94.43
2023-04-01T08:21:29.909Z,94.04
2023-04-01T08:24:01.110Z,94.19
2023-04-01T08:26:38.689Z,94.21
2023-04-01T08:29:07.515Z,94.10
2023-04-01T08:31:46.646Z,93.91
2023-04-01T08:34:22.505Z,94.52
2023-04-01T08:37:00.697Z,93.56
2023-04-01T08:39:40.153Z,93.54
2023-04-01T08:42:43.823Z,94.35
2023-04-01T08:45:45.609Z,93.65
2023-04-01T08:48:45.766Z,94.24
2023-04-01T08:52:01.627Z,94.03
2023-04-01T08:55:05.505Z,93.39
2023-04-01T08:57:51.732Z,93.67
2023-04-01T09:00:41.202Z,93.52
2023-04-01T09:03:21.002Z,93.93
2023-04-01T09:05:57.497Z,93.13
2023-04-01T09:08:32.343Z,93.32
2023-04-01T09:11:30.515Z,93.52
2023-04-01T09:13:56.780Z,94.28
2023-04-01T09:16:40.744Z,94.08
2023-04-01T09:19:17.842Z,93.96
2023-04-01T09:22:21.102Z,93.97
2023-04-01T09:25:16.195Z,93.47
2023-04-01T09:28:03.829Z,93.29
2023-04-01T09:31:17.896Z,93.15
2023-04-01T09:34:11.893Z,93.85
2023-04-01T09:36:41.199Z,93.75
2023-04-01T09:39:35.582Z,93.88
2023-04-01T09:42:01.850Z,93.44
2023-04-01T09:44:37.752Z,93.10
2023-04-01T09:47:27.217Z,93.70
2023-04-01T09:50:27.329Z,93.55
2023-04-01T09:53:25.832Z,94.33
2023-04-01T09:56:34.392Z,93.55
2023-04-01T09:59:00.707Z,93.78
2023-04-01T10:01:48.687Z,93.47
2023-04-01T10:04:42.688Z,93.40
2023-04-01T10:07:30.794Z,94.21
2023-04-01T10:10:19.020Z,94.24
2023-04-01T10:12:51.376Z,93.21
2023-04-01T10:15:20.676Z,93.07
2023-04-01T10:18:05.291Z,93.32
2023-04-01T10:20:54.783Z,93.11
2023-04-01T10:23:42.515Z,92.97
2023-04-01T10:26:08.747Z,92.36
2023-04-01T10:29:02.819Z,92.05
2023-04-01T10:32:10.476Z,94.06
2023-04-01T10:34:57.008Z,93.76
2023-04-01T10:37:54.217Z,93.85
2023-04-01T10:40:47.588Z,93.50
2023-04-01T10:43:35.506Z,92.58
2023-04-01T10:46:04.499Z,93.60
2023-04-01T10:49:09.280Z,92.88
2023-04-01T10:51:44.811Z,92.44
2023-04-01T10:54:38.703Z,92.58
2023-04-01T10:57:30.068Z,92.51
2023-04-01T11:00:05.302Z,92.72
2023-04-01T11:03:07.127Z,92.65
2023-04-01T11:05:39.419Z,92.36
2023-04-01T11:08:29.904Z,91.98
2023-04-01T11:11:33.866Z,92.24
2023-04-01T11:14:21.886Z,91.69
2023-04-01T11:17:23.510Z,92.22
2023-04-01T11:20:19.646Z,92.64
2023-04-01T11:23:04.788Z,92.03
2023-04-01T11:25:52.874Z,90.93
2023-04-01T11:28:28.288Z,91.19
2023-04-01T11:30:57.638Z,93.23
2023-04-01T11:33:34.212Z,91.63
2023-04-01T11:36:10.329Z,91.50
2023-04-01T11:38:59.836Z,92.23
2023-04-01T11:41:46.780Z,92.16
2023-04-01T11:44:22.158Z,91.22
2023-04-01T11:47:15.020Z,91.18
2023-04-01T11:50:21.596Z,90.24
2023-04-01T11:53:30.989Z,90.43
2023-04-01T11:56:15.621Z,91.58
2023-04-01T11:59:12.485Z,90.26
2023-04-01T12:01:57.108Z,91.13
2023-04-01T12:04:45.174Z,90.23
2023-04-01T12:07:22.725Z,90.78
2023-04-01T12:10:26.641Z,90.86
2023-04-01T12:13:08.220Z,91.54
2023-04-01T12:16:02.006Z,90.87
2023-04-01T12:18:47.289Z,91.03
2023-04-01T12:21:49.224Z,90.42
2023-04-01T12:24:41.614Z,91.28
2023-04-01T12:27:07.859Z,92.50
2023-04-01T12:29:37.199Z,90.68
2023-04-01T12:32:31.037Z,90.86
2023-04-01T12:35:18.585Z,90.80
2023-04-01T12:38:08.734Z,89.97
2023-04-01T12:40:40.700Z,90.93
2023-04-01T12:43:35.034Z,90.75
2023-04-01T12:46:26.206Z,90.95
2023-04-01T12:49:02.077Z,90.12
2023-04-01T12:51:55.631Z,90.29
2023-04-01T12:54:37.482Z,90.69
2023-04-01T12:57:28.763Z,90.86
2023-04-01T13:00:01.263Z,90.69
2023-04-01T13:02:42.184Z,90.13
2023-04-01T13:05:33.607Z,90.30
2023-04-01T13:08:26.552Z,90.60
2023-04-01T13:11:07.712Z,91.35
2023-04-01T13:13:59.778Z,90.81
2023-04-01T13:16:38.000Z,92.01
2023-04-01T13:19:11.501Z,91.07
2023-04-01T13:22:02.476Z,91.85
2023-04-01T13:24:37.947Z,90.77
2023-04-01T13:27:22.493Z,91.75
2023-04-01T13:30:08.562Z,92.11
2023-04-01T13:33:02.879Z,92.35
2023-04-01T13:35:50.681Z,90.99
2023-04-01T13:38:23.133Z,91.03
2023-04-01T13:41:03.901Z,91.98
2023-04-01T13:43:35.631Z,90.87
2023-04-01T13:46:01.889Z,90.94
2023-04-01T13:48:51.463Z,91.80
2023-04-01T13:51:20.698Z,91.27
2023-04-01T13:54:05.160Z,91.82
2023-04-01T13:56:40.520Z,91.74
2023-04-01T13:59:47.002Z,91.45
2023-04-01T14:02:34.499Z,90.52
2023-04-01T14:05:42.151Z,90.46
2023-04-01T14:08:40.377Z,91.30
2023-04-01T14:11:46.243Z,91.84
2023-04-01T14:14:18.403Z,91.52
2023-04-01T14:17:18.874Z,90.76
2023-04-01T14:20:05.430Z,91.39
2023-04-01T14:22:49.924Z,90.92
2023-04-01T14:25:37.164Z,90.74
2023-04-01T14:28:38.693Z,91.18
2023-04-01T14:31:20.322Z,91.57
2023-04-01T14:33:53.938Z,90.65
2023-04-01T14:36:48.021Z,89.96
2023-04-01T14:39:30.907Z,90.80
2023-04-01T14:42:33.616Z,89.93
2023-04-01T14:45:40.596Z,90.16
2023-04-01T14:48:43.743Z,90.09
2023-04-01T14:51:30.946Z,90.32
2023-04-01T14:54:09.970Z,90.19
2023-04-01T14:56:45.409Z,90.39
2023-04-01T14:59:28.558Z,90.30
2023-04-01T15:02:18.438Z,90.45
2023-04-01T15:04:55.295Z,89.77
2023-04-01T15:07:52.830Z,90.58
2023-04-01T15:10:54.214Z,90.47
2023-04-01T15:13:29.629Z,90.99
2023-04-01T15:15:55.942Z,91.55
2023-04-01T15:18:38.194Z,91.21
2023-04-01T15:21:41.349Z,90.77
2023-04-01T15:24:17.917Z,90.52
2023-04-01T15:26:53.236Z,91.06
2023-04-01T15:29:41.200Z,90.83
2023-04-01T15:32:38.356Z,90.66
2023-04-01T15:35:18.699Z,90.92
2023-04-01T15:37:58.131Z,90.66
2023-04-01T15:40:43.163Z,90.47
2023-04-01T15:43:33.467Z,90.83
2023-04-01T15:46:26.663Z,91.06
2023-04-01T15:49:11.738Z,90.50
2023-04-01T15:51:44.134Z,91.02
2023-04-01T15:54:33.851Z,91.09
2023-04-01T15:57:15.675Z,91.50
2023-04-01T16:00:01.550Z,90.44
2023-04-01T16:02:43.033Z,90.39
2023-04-01T16:05:12.132Z,89.60
2023-04-01T16:07:44.901Z,89.74
2023-04-01T16:10:33.160Z,90.08
2023-04-01T16:13:19.488Z,89.44
2023-04-01T16:15:57.125Z,89.76
2023-04-01T16:18:40.205Z,89.78
2023-04-01T16:21:41.618Z,90.35
2023-04-01T16:24:25.176Z,90.27
2023-04-01T16:26:57.187Z,89.76
2023-04-01T16:29:56.678Z,89.89
2023-04-01T16:32:28.597Z,89.88
2023-04-01T16:35:12.982Z,90.05
2023-04-01T16:37:54.864Z,89.41
2023-04-01T16:40:21.132Z,89.22
2023-04-01T16:42:52.408Z,89.69
2023-04-01T16:45:41.192Z,89.64
2023-04-01T16:48:10.242Z,89.98
2023-04-01T16:51:00.811Z,89.86
2023-04-01T16:53:46.586Z,89.67
2023-04-01T16:56:28.429Z,90.36
2023-04-01T16:59:14.778Z,89.88
2023-04-01T17:02:06.968Z,90.75
2023-04-01T17:04:58.616Z,90.93
2023-04-01T17:07:31.167Z,90.47
2023-04-01T17:10:25.569Z,90.92
2023-04-01T17:13:25.250Z,90.45
2023-04-01T17:16:01.561Z,90.10
2023-04-01T17:18:55.976Z,90.91
2023-04-01T17:21:34.180Z,91.17
2023-04-01T17:24:26.886Z,91.27
2023-04-01T17:27:07.269Z,90.51
2023-04-01T17:30:11.119Z,90.65
2023-04-01T17:32:55.605Z,91.12
2023-04-01T17:35:30.950Z,91.25
2023-04-01T17:38:18.439Z,91.35
2023-04-01T17:41:02.728Z,91.28
2023-04-01T17:43:48.816Z,91.62
2023-04-01T17:46:50.751Z,90.50
2023-04-01T17:49:58.186Z,90.14
2023-04-01T17:52:47.621Z,91.61
2023-04-01T17:55:41.888Z,91.07
2023-04-01T17:58:22.697Z,91.41
2023-04-01T18:01:20.572Z,91.07
2023-04-01T18:04:01.176Z,91.28
2023-04-01T18:06:34.266Z,91.78
2023-04-01T18:09:28.444Z,91.27
2023-04-01T18:12:08.899Z,92.11
2023-04-01T18:15:05.581Z,91.24
2023-04-01T18:17:40.130Z,90.69
2023-04-01T18:20:32.967Z,90.81
2023-04-01T18:23:04.161Z,90.86
2023-04-01T18:25:45.293Z,90.47
2023-04-01T18:28:36.248Z,90.77
2023-04-01T18:31:02.510Z,91.08
2023-04-01T18:33:44.087Z,90.49
2023-04-01T18:36:19.384Z,90.94
2023-04-01T18:39:16.710Z,91.21
2023-04-01T18:42:15.590Z,91.49
2023-04-01T18:44:52.416Z,91.48
2023-04-01T18:47:37.602Z,92.20
2023-04-01T18:50:28.664Z,91.43
2023-04-01T18:53:09.413Z,91.39
2023-04-01T18:56:04.244Z,90.61
2023-04-01T18:58:50.948Z,91.10
2023-04-01T19:01:20.792Z,91.06
2023-04-01T19:03:56.299Z,91.18
2023-04-01T19:06:30.097Z,91.52
2023-04-01T19:09:13.138Z,91.76
2023-04-01T19:12:08.987Z,91.98
2023-04-01T19:14:56.960Z,92.35
2023-04-01T19:17:42.089Z,92.04
2023-04-01T19:20:22.350Z,91.78
2023-04-01T19:23:07.150Z,92.50
2023-04-01T19:25:51.365Z,90.66
2023-04-01T19:28:27.609Z,91.64
2023-04-01T19:31:19.411Z,91.07
2023-04-01T19:34:13.599Z,91.50
2023-04-01T19:36:51.492Z,91.55
2023-04-01T19:39:55.522Z,91.51
2023-04-01T19:42:43.444Z,91.14
2023-04-01T19:45:15.977Z,91.19
2023-04-01T19:47:54.423Z,91.26
2023-04-01T19:50:37.361Z,91.28
2023-04-01T19:53:18.628Z,92.07
2023-04-01T19:56:06.244Z,91.88
2023-04-01T19:58:46.139Z,91.86
2023-04-01T20:01:44.344Z,91.98
2023-04-01T20:04:17.726Z,91.50
2023-04-01T20:06:59.905Z,91.15
2023-04-01T20:09:32.053Z,91.38
2023-04-01T20:12:42.453Z,91.32
2023-04-01T20:15:42.474Z,90.27
2023-04-01T20:18:23.883Z,91.17
2023-04-01T20:21:01.316Z,90.34
2023-04-01T20:23:45.927Z,90.82
2023-04-01T20:26:13.820Z,91.13
2023-04-01T20:28:44.406Z,91.53
2023-04-01T20:31:26.374Z,91.51
2023-04-01T20:33:59.159Z,91.66
2023-04-01T20:36:53.603Z,91.72
2023-04-01T20:39:48.059Z,90.84
2023-04-01T20:42:56.849Z,90.77
2023-04-01T20:45:34.804Z,90.30
2023-04-01T20:48:01.342Z,90.68
2023-04-01T20:50:46.152Z,91.66
2023-04-01T20:53:17.388Z,91.81
2023-04-01T20:56:02.439Z,90.92
2023-04-01T20:58:47.200Z,91.64
2023-04-01T21:01:42.591Z,91.99
2023-04-01T21:04:31.562Z,90.75
2023-04-01T21:06:57.811Z,90.86
2023-04-01T21:09:33.093Z,90.66
2023-04-01T21:12:29.523Z,90.88
2023-04-01T21:15:10.700Z,91.02
2023-04-01T21:18:00.360Z,90.61
2023-04-01T21:20:42.006Z,90.17
2023-04-01T21:23:30.171Z,90.35
2023-04-01T21:26:08.734Z,90.77
2023-04-01T21:28:56.907Z,90.69
2023-04-01T21:31:26.325Z,90.60
2023-04-01T21:34:37.207Z,90.70
2023-04-01T21:37:09.252Z,90.16
2023-04-01T21:40:12.154Z,90.09
2023-04-01T21:43:02.674Z,90.13
2023-04-01T21:45:37.837Z,90.12
2023-04-01T21:48:32.800Z,90.44
2023-04-01T21:51:29.340Z,89.91
2023-04-01T21:54:17.211Z,89.46
2023-04-01T21:57:12.829Z,89.34
2023-04-01T22:00:14.936Z,89.58
2023-04-01T22:03:04.251Z,89.67
2023-04-01T22:05:44.278Z,89.43
2023-04-01T22:08:34.922Z,89.51
2023-04-01T22:11:17.488Z,89.19
2023-04-01T22:13:51.008Z,89.07
2023-04-01T22:16:28.115Z,88.84
2023-04-01T22:19:03.143Z,89.03
2023-04-01T22:21:38.497Z,88.79
2023-04-01T22:24:16.746Z,88.92
2023-04-01T22:27:01.309Z,89.35
2023-04-01T22:29:38.184Z,89.24
2023-04-01T22:32:16.368Z,87.90
2023-04-01T22:34:50.521Z,87.87
2023-04-01T22:37:22.992Z,88.07
2023-04-01T22:40:21.344Z,87.39
2023-04-01T22:42:54.343Z,87.83
2023-04-01T22:45:39.640Z,88.05
2023-04-01T22:48:28.810Z,87.36
2023-04-01T22:51:04.438Z,87.31
2023-04-01T22:53:48.873Z,87.68
2023-04-01T22:56:24.327Z,87.09
2023-04-01T22:58:58.506Z,87.56
2023-04-01T23:01:30.336Z,86.23
2023-04-01T23:03:58.932Z,86.94
2023-04-01T23:06:42.183Z,86.99
2023-04-01T23:09:13.596Z,85.97
2023-04-01T23:12:00.052Z,85.93
2023-04-01T23:14:35.832Z,86.00
2023-04-01T23:17:05.407Z,86.45
2023-04-01T23:19:53.338Z,86.52
2023-04-01T23:22:29.948Z,86.25
2023-04-01T23:25:16.637Z,86.87
2023-04-01T23:27:46.009Z,86.28
2023-04-01T23:30:47.441Z,85.19
2023-04-01T23:33:19.852Z,85.83
2023-04-01T23:36:15.497Z,86.43
2023-04-01T23:38:47.913Z,86.42
2023-04-01T23:41:24.749Z,86.05
2023-04-01T23:44:00.386Z,85.74
2023-04-01T23:46:27.796Z,85.03
2023-04-01T23:48:54.536Z,85.84
2023-04-01T23:51:27.512Z,84.56
2023-04-01T23:54:04.902Z,85.03
2023-04-01T23:56:49.349Z,84.87
2023-04-01T23:59:24.403Z,84.65
